Gaithersburg, MD (20883)

12:59 PM EDT on September 23, 2014 (GMT -0400)
Bennington | Change Station
CLOSE
Current Station
Personal Weather Station
Location: Gaithersburg, MD
Elevation: 380 ft
Nearby Weather Stations

Elev 380 ft 39.15 °N, 77.24 °W | Updated 3 minutes ago

Clear
Clear
63.7 °F
Feels Like 63.7 °F
N
0.0
Wind Variable Wind from NNW
Gusts 4.0 mph

Today
High -- | Low -- °F
--% Chance of Precip.
Yesterday
High -- | Low -- °F
Precip. -- in
6:57 AM 7:04 PM
Waning Crescent, 0% visible
Pressure 30.40 in
Visibility 10.0 miles
Clouds Clear
Dew Point 46 °F
Humidity 53%
Rainfall 0.00 in
Snow Depth Not available.
UV 8 out of 12
Pollen 3.80 out of 12
Air Quality Not available.
Flu Activity Not available.
METAR KGAI 231635Z 04004KT 10SM CLR 18/06 A3040 RMK AO1

More Conditions Fewer Conditions

Pressure 30.40 in
Visibility 10.0 miles
Clouds Clear
Dew Point 46 °F
Humidity 53%
Rainfall 0.00 in
Snow Depth Not available.
UV 8 out of 12
Pollen 3.80 out of 12
Air Quality Not available.
Flu Activity Not available.
METAR KGAI 231635Z 04004KT 10SM CLR 18/06 A3040 RMK AO1

More Conditions Fewer Conditions

10-Day Weather Forecast

Almanac

Astronomy

Sep. 23, 2014 Rise Set
Actual Time 6:57 AM EDT 7:04 PM EDT
Civil Twilight 6:30 AM EDT 7:31 PM EDT
Nautical Twilight 5:59 AM EDT 8:02 PM EDT
Astronomical Twilight 5:27 AM EDT 8:33 PM EDT
Moon 6:19 AM EDT 6:42 PM EDT
Length of Visible Light 13h 00m
Length of Day
12h 06m
Tomorrow will be 2m 32s shorter.
Waning Crescent, 0% of the Moon is Illuminated
Today
Waning Crescent
Sep 24
New
Oct 1
First Quarter
Oct 8
Full
Oct 15
Last Quarter

Today's Extremes

State Highs State Lows

Community

WunderPhotos

Upload Photos

1,755,750 photos uploaded!

WunderBlogs® & News

Nearby

Snow Depth

Station Depth Elevation
No new snow has been reported.

Earthquake Activity

City Distance Mag. Time & Date
No recent earthquake activity has been reported nearby.
Minimum magnitude displayed is 2.5.

Coastal Water Temperatures

Place Temperature
Washington, DC 73.0 °F
Baltimore, MD 73.9 °F
Solomons Island, MD 73.9 °F

Nearby Weather Stations